sensor_id;sensor_type;location;lat;lon;timestamp;temperature;humidity
69990;DHT22;57331;52.054;5.294;2022-07-29T00:05:58;19.10;29.00
69990;DHT22;57331;52.054;5.294;2022-07-29T00:13:20;18.20;37.20
69990;DHT22;57331;52.054;5.294;2022-07-29T00:15:58;16.60;36.60
69990;DHT22;57331;52.054;5.294;2022-07-29T00:18:31;17.50;37.20
69990;DHT22;57331;52.054;5.294;2022-07-29T00:23:25;17.00;34.70
69990;DHT22;57331;52.054;5.294;2022-07-29T00:28:19;17.80;38.00
69990;DHT22;57331;52.054;5.294;2022-07-29T00:30:46;16.50;37.40
69990;DHT22;57331;52.054;5.294;2022-07-29T00:35:41;16.60;37.70
69990;DHT22;57331;52.054;5.294;2022-07-29T00:38:13;17.60;26.10
69990;DHT22;57331;52.054;5.294;2022-07-29T00:45:37;18.90;39.50
69990;DHT22;57331;52.054;5.294;2022-07-29T00:48:04;16.80;36.70
69990;DHT22;57331;52.054;5.294;2022-07-29T00:50:31;17.50;26.60
69990;DHT22;57331;52.054;5.294;2022-07-29T00:52:59;18.10;34.20
69990;DHT22;57331;52.054;5.294;2022-07-29T00:55:26;18.70;39.70
69990;DHT22;57331;52.054;5.294;2022-07-29T01:00:23;17.40;26.80
69990;DHT22;57331;52.054;5.294;2022-07-29T01:02:51;18.40;39.80
69990;DHT22;57331;52.054;5.294;2022-07-29T01:05:20;17.40;26.90
69990;DHT22;57331;52.054;5.294;2022-07-29T01:07:50;18.20;40.00
69990;DHT22;57331;52.054;5.294;2022-07-29T01:10:19;16.10;39.00
69990;DHT22;57331;52.054;5.294;2022-07-29T01:12:49;16.10;39.20
69990;DHT22;57331;52.054;5.294;2022-07-29T01:26:01;15.90;39.60
69990;DHT22;57331;52.054;5.294;2022-07-29T01:31:36;17.10;27.80
69990;DHT22;57331;52.054;5.294;2022-07-29T01:40:27;15.80;40.30
69990;DHT22;57331;52.054;5.294;2022-07-29T01:42:57;17.00;28.00
69990;DHT22;57331;52.054;5.294;2022-07-29T01:45:41;15.70;40.30
69990;DHT22;57331;52.054;5.294;2022-07-29T01:48:19;17.00;28.00
69990;DHT22;57331;52.054;5.294;2022-07-29T01:50:56;18.30;41.80
69990;DHT22;57331;52.054;5.294;2022-07-29T01:53:42;17.00;28.10
69990;DHT22;57331;52.054;5.294;2022-07-29T01:56:12;17.30;41.50
69990;DHT22;57331;52.054;5.294;2022-07-29T01:58:41;17.10;28.40
69990;DHT22;57331;52.054;5.294;2022-07-29T02:01:11;16.90;28.30
69990;DHT22;57331;52.054;5.294;2022-07-29T02:03:43;17.00;28.40
69990;DHT22;57331;52.054;5.294;2022-07-29T02:06:11;16.90;28.30
69990;DHT22;57331;52.054;5.294;2022-07-29T02:08:39;17.30;41.70
69990;DHT22;57331;52.054;5.294;2022-07-29T02:11:08;17.00;28.50
69990;DHT22;57331;52.054;5.294;2022-07-29T02:13:36;18.20;42.20
69990;DHT22;57331;52.054;5.294;2022-07-29T02:16:06;15.80;41.00
69990;DHT22;57331;52.054;5.294;2022-07-29T02:18:36;16.50;33.40
69990;DHT22;57331;52.054;5.294;2022-07-29T02:21:04;17.00;28.50
69990;DHT22;57331;52.054;5.294;2022-07-29T02:26:21;18.20;34.70
69990;DHT22;57331;52.054;5.294;2022-07-29T02:28:51;16.90;28.50
69990;DHT22;57331;52.054;5.294;2022-07-29T02:31:21;15.80;41.30
69990;DHT22;57331;52.054;5.294;2022-07-29T02:33:50;16.90;28.60
69990;DHT22;57331;52.054;5.294;2022-07-29T02:36:19;17.00;28.70
69990;DHT22;57331;52.054;5.294;2022-07-29T02:38:48;18.10;42.60
69990;DHT22;57331;52.054;5.294;2022-07-29T02:41:46;17.30;42.20
69990;DHT22;57331;52.054;5.294;2022-07-29T02:44:16;16.90;28.80
69990;DHT22;57331;52.054;5.294;2022-07-29T02:46:50;16.90;28.80
69990;DHT22;57331;52.054;5.294;2022-07-29T02:49:38;18.20;43.00
69990;DHT22;57331;52.054;5.294;2022-07-29T02:52:20;15.80;41.70
69990;DHT22;57331;52.054;5.294;2022-07-29T02:57:43;15.60;41.60
69990;DHT22;57331;52.054;5.294;2022-07-29T03:00:23;16.00;41.90
69990;DHT22;57331;52.054;5.294;2022-07-29T03:02:52;16.80;29.00
69990;DHT22;57331;52.054;5.294;2022-07-29T03:05:21;15.50;41.70
69990;DHT22;57331;52.054;5.294;2022-07-29T03:07:56;16.80;28.80
69990;DHT22;57331;52.054;5.294;2022-07-29T03:10:26;16.30;42.30
69990;DHT22;57331;52.054;5.294;2022-07-29T03:12:55;16.80;29.10
69990;DHT22;57331;52.054;5.294;2022-07-29T03:15:23;18.10;29.70
69990;DHT22;57331;52.054;5.294;2022-07-29T03:17:51;16.80;29.10
69990;DHT22;57331;52.054;5.294;2022-07-29T03:25:18;15.60;42.10
69990;DHT22;57331;52.054;5.294;2022-07-29T03:30:14;18.20;43.40
69990;DHT22;57331;52.054;5.294;2022-07-29T03:32:48;15.60;42.00
69990;DHT22;57331;52.054;5.294;2022-07-29T03:37:46;18.10;43.40
69990;DHT22;57331;52.054;5.294;2022-07-29T03:40:31;15.40;42.10
69990;DHT22;57331;52.054;5.294;2022-07-29T03:43:01;16.70;29.30
69990;DHT22;57331;52.054;5.294;2022-07-29T03:45:29;16.70;29.30
69990;DHT22;57331;52.054;5.294;2022-07-29T03:48:01;16.80;29.40
69990;DHT22;57331;52.054;5.294;2022-07-29T03:50:30;16.70;29.40
69990;DHT22;57331;52.054;5.294;2022-07-29T03:52:57;15.50;42.30
69990;DHT22;57331;52.054;5.294;2022-07-29T03:55:25;16.90;43.00
69990;DHT22;57331;52.054;5.294;2022-07-29T03:57:53;16.70;29.20
69990;DHT22;57331;52.054;5.294;2022-07-29T04:00:24;18.10;43.60
69990;DHT22;57331;52.054;5.294;2022-07-29T04:07:46;16.90;43.10
69990;DHT22;57331;52.054;5.294;2022-07-29T04:10:15;16.70;29.30
69990;DHT22;57331;52.054;5.294;2022-07-29T04:15:10;17.10;30.20
69990;DHT22;57331;52.054;5.294;2022-07-29T04:17:38;15.50;42.30
69990;DHT22;57331;52.054;5.294;2022-07-29T04:20:05;17.70;43.80
69990;DHT22;57331;52.054;5.294;2022-07-29T04:22:32;15.70;42.60
69990;DHT22;57331;52.054;5.294;2022-07-29T04:24:59;15.90;42.70
69990;DHT22;57331;52.054;5.294;2022-07-29T04:27:29;17.00;43.40
69990;DHT22;57331;52.054;5.294;2022-07-29T04:32:24;15.40;42.40
69990;DHT22;57331;52.054;5.294;2022-07-29T04:39:46;17.60;43.50
69990;DHT22;57331;52.054;5.294;2022-07-29T04:44:42;15.70;42.30
69990;DHT22;57331;52.054;5.294;2022-07-29T04:49:39;16.60;38.70
69990;DHT22;57331;52.054;5.294;2022-07-29T04:52:07;15.90;42.20
69990;DHT22;57331;52.054;5.294;2022-07-29T04:57:00;16.30;42.40
69990;DHT22;57331;52.054;5.294;2022-07-29T04:59:27;16.90;37.40
69990;DHT22;57331;52.054;5.294;2022-07-29T05:01:54;18.30;43.40
69990;DHT22;57331;52.054;5.294;2022-07-29T05:11:43;17.80;42.80
69990;DHT22;57331;52.054;5.294;2022-07-29T05:14:10;18.30;41.60
69990;DHT22;57331;52.054;5.294;2022-07-29T05:16:37;17.30;42.40
69990;DHT22;57331;52.054;5.294;2022-07-29T05:19:06;18.50;43.00
69990;DHT22;57331;52.054;5.294;2022-07-29T05:24:07;16.10;32.70
69990;DHT22;57331;52.054;5.294;2022-07-29T05:26:34;18.20;42.60
69990;DHT22;57331;52.054;5.294;2022-07-29T05:29:01;17.20;42.00
69990;DHT22;57331;52.054;5.294;2022-07-29T05:31:28;18.70;42.60
69990;DHT22;57331;52.054;5.294;2022-07-29T05:33:55;18.60;42.50
69990;DHT22;57331;52.054;5.294;2022-07-29T05:36:22;16.10;41.30
69990;DHT22;57331;52.054;5.294;2022-07-29T05:41:17;18.50;42.40
69990;DHT22;57331;52.054;5.294;2022-07-29T05:48:40;16.20;41.00
69990;DHT22;57331;52.054;5.294;2022-07-29T05:51:07;18.60;42.20
69990;DHT22;57331;52.054;5.294;2022-07-29T05:56:04;16.30;37.00
69990;DHT22;57331;52.054;5.294;2022-07-29T05:58:32;16.30;40.70
69990;DHT22;57331;52.054;5.294;2022-07-29T06:00:59;17.50;41.20
69990;DHT22;57331;52.054;5.294;2022-07-29T06:08:21;18.40;41.60
69990;DHT22;57331;52.054;5.294;2022-07-29T06:13:15;19.00;41.70
69990;DHT22;57331;52.054;5.294;2022-07-29T06:20:37;18.10;40.70
69990;DHT22;57331;52.054;5.294;2022-07-29T06:23:04;18.10;40.90
69990;DHT22;57331;52.054;5.294;2022-07-29T06:25:31;17.60;40.40
69990;DHT22;57331;52.054;5.294;2022-07-29T06:28:01;17.20;35.40
69990;DHT22;57331;52.054;5.294;2022-07-29T06:30:28;17.10;40.00
69990;DHT22;57331;52.054;5.294;2022-07-29T06:32:55;16.80;39.80
69990;DHT22;57331;52.054;5.294;2022-07-29T06:40:55;17.90;40.30
69990;DHT22;57331;52.054;5.294;2022-07-29T06:43:33;18.20;27.90
69990;DHT22;57331;52.054;5.294;2022-07-29T06:46:17;17.00;39.60
69990;DHT22;57331;52.054;5.294;2022-07-29T06:48:45;18.70;30.00
69990;DHT22;57331;52.054;5.294;2022-07-29T06:51:12;17.30;39.60
69990;DHT22;57331;52.054;5.294;2022-07-29T06:53:39;19.20;40.40
69990;DHT22;57331;52.054;5.294;2022-07-29T07:03:47;18.00;38.70
69990;DHT22;57331;52.054;5.294;2022-07-29T07:08:41;18.10;37.40
69990;DHT22;57331;52.054;5.294;2022-07-29T07:13:35;19.80;38.00
69990;DHT22;57331;52.054;5.294;2022-07-29T07:16:03;18.80;36.80
69990;DHT22;57331;52.054;5.294;2022-07-29T07:18:30;18.90;36.30
69990;DHT22;57331;52.054;5.294;2022-07-29T07:20:57;19.70;35.80
69990;DHT22;57331;52.054;5.294;2022-07-29T07:28:19;21.00;36.50
69990;DHT22;57331;52.054;5.294;2022-07-29T07:30:51;21.70;36.40
69990;DHT22;57331;52.054;5.294;2022-07-29T07:38:13;19.30;34.50
69990;DHT22;57331;52.054;5.294;2022-07-29T07:43:07;20.80;34.40
69990;DHT22;57331;52.054;5.294;2022-07-29T07:48:04;22.10;35.00
69990;DHT22;57331;52.054;5.294;2022-07-29T07:50:31;21.20;34.00
69990;DHT22;57331;52.054;5.294;2022-07-29T07:55:25;20.70;23.90
69990;DHT22;57331;52.054;5.294;2022-07-29T08:00:20;20.80;24.00
69990;DHT22;57331;52.054;5.294;2022-07-29T08:02:49;22.20;34.70
69990;DHT22;57331;52.054;5.294;2022-07-29T08:07:46;22.50;34.60
69990;DHT22;57331;52.054;5.294;2022-07-29T08:10:14;19.90;32.60
69990;DHT22;57331;52.054;5.294;2022-07-29T08:15:10;22.10;27.70
69990;DHT22;57331;52.054;5.294;2022-07-29T08:17:37;22.40;31.80
69990;DHT22;57331;52.054;5.294;2022-07-29T08:20:04;22.10;31.60
69990;DHT22;57331;52.054;5.294;2022-07-29T08:22:31;21.50;30.80
69990;DHT22;57331;52.054;5.294;2022-07-29T08:24:58;23.20;31.20
69990;DHT22;57331;52.054;5.294;2022-07-29T08:27:25;22.60;31.10
69990;DHT22;57331;52.054;5.294;2022-07-29T08:32:38;20.70;29.90
69990;DHT22;57331;52.054;5.294;2022-07-29T08:35:22;20.90;29.90
69990;DHT22;57331;52.054;5.294;2022-07-29T08:37:50;22.50;29.90
69990;DHT22;57331;52.054;5.294;2022-07-29T08:40:17;21.70;29.20
69990;DHT22;57331;52.054;5.294;2022-07-29T08:42:44;21.70;29.20
69990;DHT22;57331;52.054;5.294;2022-07-29T08:45:12;23.20;29.30
69990;DHT22;57331;52.054;5.294;2022-07-29T08:47:39;21.70;28.50
69990;DHT22;57331;52.054;5.294;2022-07-29T08:50:09;22.70;28.50
69990;DHT22;57331;52.054;5.294;2022-07-29T08:52:39;23.20;29.90
69990;DHT22;57331;52.054;5.294;2022-07-29T08:55:08;24.80;28.20
69990;DHT22;57331;52.054;5.294;2022-07-29T08:57:35;23.50;20.00
69990;DHT22;57331;52.054;5.294;2022-07-29T09:00:07;22.10;27.00
69990;DHT22;57331;52.054;5.294;2022-07-29T09:02:41;24.70;27.40
69990;DHT22;57331;52.054;5.294;2022-07-29T09:05:13;24.20;19.60
69990;DHT22;57331;52.054;5.294;2022-07-29T09:07:41;23.70;26.90
69990;DHT22;57331;52.054;5.294;2022-07-29T09:10:10;22.30;26.30
69990;DHT22;57331;52.054;5.294;2022-07-29T09:12:37;25.00;27.40
69990;DHT22;57331;52.054;5.294;2022-07-29T09:15:05;24.10;19.20
69990;DHT22;57331;52.054;5.294;2022-07-29T09:17:43;24.30;18.70
69990;DHT22;57331;52.054;5.294;2022-07-29T09:20:12;24.40;26.00
69990;DHT22;57331;52.054;5.294;2022-07-29T09:22:39;26.10;25.80
69990;DHT22;57331;52.054;5.294;2022-07-29T09:25:08;25.00;17.90
69990;DHT22;57331;52.054;5.294;2022-07-29T09:27:38;25.30;23.80
69990;DHT22;57331;52.054;5.294;2022-07-29T09:30:09;26.10;25.20
69990;DHT22;57331;52.054;5.294;2022-07-29T09:32:56;25.90;24.70
69990;DHT22;57331;52.054;5.294;2022-07-29T09:35:24;25.80;16.30
69990;DHT22;57331;52.054;5.294;2022-07-29T09:37:53;24.90;22.00
69990;DHT22;57331;52.054;5.294;2022-07-29T09:40:26;27.10;22.80
69990;DHT22;57331;52.054;5.294;2022-07-29T09:42:54;27.30;22.80
69990;DHT22;57331;52.054;5.294;2022-07-29T09:47:54;27.00;20.80
69990;DHT22;57331;52.054;5.294;2022-07-29T09:50:35;27.30;21.40
69990;DHT22;57331;52.054;5.294;2022-07-29T09:53:02;26.00;14.00
69990;DHT22;57331;52.054;5.294;2022-07-29T09:55:29;26.20;14.40
69990;DHT22;57331;52.054;5.294;2022-07-29T09:58:16;26.70;21.00
69990;DHT22;57331;52.054;5.294;2022-07-29T10:00:44;26.40;13.60
69990;DHT22;57331;52.054;5.294;2022-07-29T10:03:13;25.80;20.80
69990;DHT22;57331;52.054;5.294;2022-07-29T10:05:40;26.30;21.40
69990;DHT22;57331;52.054;5.294;2022-07-29T10:08:09;26.40;20.90
69990;DHT22;57331;52.054;5.294;2022-07-29T10:10:40;28.00;21.90
69990;DHT22;57331;52.054;5.294;2022-07-29T10:13:09;27.20;14.00
69990;DHT22;57331;52.054;5.294;2022-07-29T10:15:43;27.00;18.40
69990;DHT22;57331;52.054;5.294;2022-07-29T10:18:13;28.70;19.30
69990;DHT22;57331;52.054;5.294;2022-07-29T10:20:42;28.20;12.40
69990;DHT22;57331;52.054;5.294;2022-07-29T10:23:09;28.60;18.10
69990;DHT22;57331;52.054;5.294;2022-07-29T10:25:36;30.20;19.00
69990;DHT22;57331;52.054;5.294;2022-07-29T10:28:05;29.00;17.10
69990;DHT22;57331;52.054;5.294;2022-07-29T10:30:32;29.50;11.30
69990;DHT22;57331;52.054;5.294;2022-07-29T10:39:19;29.80;9.20
69990;DHT22;57331;52.054;5.294;2022-07-29T10:42:02;29.20;15.20
69990;DHT22;57331;52.054;5.294;2022-07-29T10:44:31;29.80;9.30
69990;DHT22;57331;52.054;5.294;2022-07-29T10:47:00;30.90;15.00
69990;DHT22;57331;52.054;5.294;2022-07-29T10:49:28;30.00;9.10
69990;DHT22;57331;52.054;5.294;2022-07-29T10:54:45;29.80;8.30
69990;DHT22;57331;52.054;5.294;2022-07-29T11:05:17;29.30;9.60
69990;DHT22;57331;52.054;5.294;2022-07-29T11:08:16;29.40;10.60
69990;DHT22;57331;52.054;5.294;2022-07-29T11:10:47;30.10;16.50
69990;DHT22;57331;52.054;5.294;2022-07-29T11:13:51;29.20;9.80
69990;DHT22;57331;52.054;5.294;2022-07-29T11:16:21;29.00;16.60
69990;DHT22;57331;52.054;5.294;2022-07-29T11:21:41;29.50;10.80
69990;DHT22;57331;52.054;5.294;2022-07-29T11:24:27;30.00;10.40
69990;DHT22;57331;52.054;5.294;2022-07-29T11:27:09;30.20;9.00
69990;DHT22;57331;52.054;5.294;2022-07-29T11:29:59;30.60;7.80
69990;DHT22;57331;52.054;5.294;2022-07-29T11:32:42;30.90;8.00
69990;DHT22;57331;52.054;5.294;2022-07-29T11:43:47;32.40;6.50
69990;DHT22;57331;52.054;5.294;2022-07-29T11:49:05;32.70;6.60
69990;DHT22;57331;52.054;5.294;2022-07-29T11:51:38;32.90;6.40
69990;DHT22;57331;52.054;5.294;2022-07-29T11:54:16;33.10;5.90
69990;DHT22;57331;52.054;5.294;2022-07-29T11:56:53;33.20;6.00
69990;DHT22;57331;52.054;5.294;2022-07-29T11:59:21;33.10;8.80
69990;DHT22;57331;52.054;5.294;2022-07-29T12:01:59;32.40;8.20
69990;DHT22;57331;52.054;5.294;2022-07-29T12:04:54;33.80;4.60
69990;DHT22;57331;52.054;5.294;2022-07-29T12:07:32;33.60;3.70
69990;DHT22;57331;52.054;5.294;2022-07-29T12:10:02;33.70;4.60
69990;DHT22;57331;52.054;5.294;2022-07-29T12:12:32;34.00;5.10
69990;DHT22;57331;52.054;5.294;2022-07-29T12:15:17;34.00;5.20
69990;DHT22;57331;52.054;5.294;2022-07-29T12:17:48;34.00;4.60
69990;DHT22;57331;52.054;5.294;2022-07-29T12:20:23;34.10;4.90
69990;DHT22;57331;52.054;5.294;2022-07-29T12:22:50;34.10;4.50
69990;DHT22;57331;52.054;5.294;2022-07-29T12:25:22;33.90;4.90
69990;DHT22;57331;52.054;5.294;2022-07-29T12:28:10;34.00;5.20
69990;DHT22;57331;52.054;5.294;2022-07-29T12:30:51;34.10;4.80
69990;DHT22;57331;52.054;5.294;2022-07-29T12:33:27;34.30;4.30
69990;DHT22;57331;52.054;5.294;2022-07-29T12:35:57;33.40;7.20
69990;DHT22;57331;52.054;5.294;2022-07-29T12:38:34;34.30;3.90
69990;DHT22;57331;52.054;5.294;2022-07-29T12:41:01;34.60;4.10
69990;DHT22;57331;52.054;5.294;2022-07-29T12:43:30;34.50;3.40
69990;DHT22;57331;52.054;5.294;2022-07-29T12:46:00;34.10;3.30
69990;DHT22;57331;52.054;5.294;2022-07-29T12:48:40;34.10;3.90
69990;DHT22;57331;52.054;5.294;2022-07-29T12:51:08;34.10;3.90
69990;DHT22;57331;52.054;5.294;2022-07-29T12:53:36;35.40;8.70
69990;DHT22;57331;52.054;5.294;2022-07-29T12:56:04;35.50;8.50
69990;DHT22;57331;52.054;5.294;2022-07-29T12:58:51;34.70;4.00
69990;DHT22;57331;52.054;5.294;2022-07-29T13:01:19;34.80;2.80
69990;DHT22;57331;52.054;5.294;2022-07-29T13:03:54;34.70;2.70
69990;DHT22;57331;52.054;5.294;2022-07-29T13:06:42;34.40;2.60
69990;DHT22;57331;52.054;5.294;2022-07-29T13:09:19;34.30;3.20
69990;DHT22;57331;52.054;5.294;2022-07-29T13:11:51;34.50;3.60
69990;DHT22;57331;52.054;5.294;2022-07-29T13:14:31;35.10;3.40
69990;DHT22;57331;52.054;5.294;2022-07-29T13:17:04;35.60;3.50
69990;DHT22;57331;52.054;5.294;2022-07-29T13:22:00;36.40;2.40
69990;DHT22;57331;52.054;5.294;2022-07-29T13:24:27;36.70;2.50
69990;DHT22;57331;52.054;5.294;2022-07-29T13:26:55;37.10;2.20
69990;DHT22;57331;52.054;5.294;2022-07-29T13:29:22;37.50;2.10
69990;DHT22;57331;52.054;5.294;2022-07-29T13:31:54;37.60;1.60
69990;DHT22;57331;52.054;5.294;2022-07-29T13:34:22;37.40;1.30
69990;DHT22;57331;52.054;5.294;2022-07-29T13:36:50;36.90;1.10
69990;DHT22;57331;52.054;5.294;2022-07-29T13:39:17;36.00;1.60
69990;DHT22;57331;52.054;5.294;2022-07-29T13:41:44;35.50;2.50
69990;DHT22;57331;52.054;5.294;2022-07-29T13:44:11;35.40;3.00
69990;DHT22;57331;52.054;5.294;2022-07-29T13:46:38;35.90;3.00
69990;DHT22;57331;52.054;5.294;2022-07-29T13:49:05;36.30;2.10
69990;DHT22;57331;52.054;5.294;2022-07-29T13:51:32;36.50;2.20
69990;DHT22;57331;52.054;5.294;2022-07-29T13:53:59;36.20;1.90
69990;DHT22;57331;52.054;5.294;2022-07-29T13:56:26;36.80;2.90
69990;DHT22;57331;52.054;5.294;2022-07-29T13:58:53;36.40;2.40
69990;DHT22;57331;52.054;5.294;2022-07-29T14:01:20;36.30;2.40
69990;DHT22;57331;52.054;5.294;2022-07-29T14:03:47;36.50;2.20
69990;DHT22;57331;52.054;5.294;2022-07-29T14:06:13;36.70;2.30
69990;DHT22;57331;52.054;5.294;2022-07-29T14:08:40;37.10;2.10
69990;DHT22;57331;52.054;5.294;2022-07-29T14:11:07;37.60;1.80
69990;DHT22;57331;52.054;5.294;2022-07-29T14:13:34;37.90;1.50
69990;DHT22;57331;52.054;5.294;2022-07-29T14:16:01;38.10;1.00
69990;DHT22;57331;52.054;5.294;2022-07-29T14:18:28;38.20;1.00
69990;DHT22;57331;52.054;5.294;2022-07-29T14:20:55;38.00;1.00
69990;DHT22;57331;52.054;5.294;2022-07-29T14:23:21;37.90;1.00
69990;DHT22;57331;52.054;5.294;2022-07-29T14:25:48;37.90;1.00
69990;DHT22;57331;52.054;5.294;2022-07-29T14:28:15;38.00;1.00
69990;DHT22;57331;52.054;5.294;2022-07-29T14:30:42;38.00;1.00
69990;DHT22;57331;52.054;5.294;2022-07-29T14:33:10;38.10;1.00
69990;DHT22;57331;52.054;5.294;2022-07-29T14:35:38;38.30;1.00
69990;DHT22;57331;52.054;5.294;2022-07-29T14:38:05;38.40;1.00
69990;DHT22;57331;52.054;5.294;2022-07-29T14:40:31;36.80;1.00
69990;DHT22;57331;52.054;5.294;2022-07-29T14:42:58;37.80;1.00
69990;DHT22;57331;52.054;5.294;2022-07-29T14:45:25;37.40;1.00
69990;DHT22;57331;52.054;5.294;2022-07-29T14:47:52;37.00;1.00
69990;DHT22;57331;52.054;5.294;2022-07-29T14:50:23;36.60;1.00
69990;DHT22;57331;52.054;5.294;2022-07-29T14:52:58;36.20;1.00
69990;DHT22;57331;52.054;5.294;2022-07-29T14:55:25;35.80;1.00
69990;DHT22;57331;52.054;5.294;2022-07-29T14:57:52;35.50;1.00
69990;DHT22;57331;52.054;5.294;2022-07-29T15:00:33;35.40;1.00
69990;DHT22;57331;52.054;5.294;2022-07-29T15:03:00;35.20;1.00
69990;DHT22;57331;52.054;5.294;2022-07-29T15:05:31;35.20;1.40
69990;DHT22;57331;52.054;5.294;2022-07-29T15:07:59;35.10;1.00
69990;DHT22;57331;52.054;5.294;2022-07-29T15:10:26;34.90;1.20
69990;DHT22;57331;52.054;5.294;2022-07-29T15:12:54;35.00;1.30
69990;DHT22;57331;52.054;5.294;2022-07-29T15:15:21;35.10;1.00
69990;DHT22;57331;52.054;5.294;2022-07-29T15:17:48;34.90;1.00
69990;DHT22;57331;52.054;5.294;2022-07-29T15:20:15;35.10;1.10
69990;DHT22;57331;52.054;5.294;2022-07-29T15:22:42;35.30;1.00
69990;DHT22;57331;52.054;5.294;2022-07-29T15:25:09;35.40;1.00
69990;DHT22;57331;52.054;5.294;2022-07-29T15:27:36;35.50;1.00
69990;DHT22;57331;52.054;5.294;2022-07-29T15:30:03;35.20;1.00
69990;DHT22;57331;52.054;5.294;2022-07-29T15:32:30;35.30;1.00
69990;DHT22;57331;52.054;5.294;2022-07-29T15:34:57;35.20;1.00
69990;DHT22;57331;52.054;5.294;2022-07-29T15:37:24;35.20;1.00
69990;DHT22;57331;52.054;5.294;2022-07-29T15:39:51;35.20;1.00
69990;DHT22;57331;52.054;5.294;2022-07-29T15:42:22;36.50;4.90
69990;DHT22;57331;52.054;5.294;2022-07-29T15:44:49;35.20;1.00
69990;DHT22;57331;52.054;5.294;2022-07-29T15:47:16;35.50;1.00
69990;DHT22;57331;52.054;5.294;2022-07-29T15:49:43;35.50;1.00
69990;DHT22;57331;52.054;5.294;2022-07-29T15:52:17;33.50;3.30
69990;DHT22;57331;52.054;5.294;2022-07-29T15:54:55;34.90;1.00
69990;DHT22;57331;52.054;5.294;2022-07-29T15:57:23;34.90;1.00
69990;DHT22;57331;52.054;5.294;2022-07-29T15:59:50;34.80;1.00
69990;DHT22;57331;52.054;5.294;2022-07-29T16:02:18;34.60;1.00
69990;DHT22;57331;52.054;5.294;2022-07-29T16:04:45;34.40;4.60
69990;DHT22;57331;52.054;5.294;2022-07-29T16:07:12;34.20;1.00
69990;DHT22;57331;52.054;5.294;2022-07-29T16:09:40;33.70;1.00
69990;DHT22;57331;52.054;5.294;2022-07-29T16:12:07;33.30;1.00
69990;DHT22;57331;52.054;5.294;2022-07-29T16:14:42;33.10;1.40
69990;DHT22;57331;52.054;5.294;2022-07-29T16:17:09;33.20;2.60
69990;DHT22;57331;52.054;5.294;2022-07-29T16:19:41;33.50;1.70
69990;DHT22;57331;52.054;5.294;2022-07-29T16:22:09;33.70;1.20
69990;DHT22;57331;52.054;5.294;2022-07-29T16:24:36;31.80;4.60
69990;DHT22;57331;52.054;5.294;2022-07-29T16:27:03;33.10;1.00
69990;DHT22;57331;52.054;5.294;2022-07-29T16:29:30;33.00;1.60
69990;DHT22;57331;52.054;5.294;2022-07-29T16:31:57;32.90;1.60
69990;DHT22;57331;52.054;5.294;2022-07-29T16:34:24;33.00;1.60
69990;DHT22;57331;52.054;5.294;2022-07-29T16:36:51;32.90;2.00
69990;DHT22;57331;52.054;5.294;2022-07-29T16:39:17;32.70;2.30
69990;DHT22;57331;52.054;5.294;2022-07-29T16:41:44;32.70;2.40
69990;DHT22;57331;52.054;5.294;2022-07-29T16:44:11;32.60;2.30
69990;DHT22;57331;52.054;5.294;2022-07-29T16:46:38;32.50;2.80
69990;DHT22;57331;52.054;5.294;2022-07-29T16:49:07;32.50;3.00
69990;DHT22;57331;52.054;5.294;2022-07-29T16:51:34;32.60;2.70
69990;DHT22;57331;52.054;5.294;2022-07-29T16:54:00;32.80;8.50
69990;DHT22;57331;52.054;5.294;2022-07-29T16:56:27;31.90;3.10
69990;DHT22;57331;52.054;5.294;2022-07-29T16:58:56;31.80;3.40
69990;DHT22;57331;52.054;5.294;2022-07-29T17:01:23;32.00;9.30
69990;DHT22;57331;52.054;5.294;2022-07-29T17:03:50;31.70;3.60
69990;DHT22;57331;52.054;5.294;2022-07-29T17:06:36;31.60;3.80
69990;DHT22;57331;52.054;5.294;2022-07-29T17:09:05;31.30;4.20
69990;DHT22;57331;52.054;5.294;2022-07-29T17:11:33;31.30;4.70
69990;DHT22;57331;52.054;5.294;2022-07-29T17:14:27;30.30;9.70
69990;DHT22;57331;52.054;5.294;2022-07-29T17:16:56;31.60;4.80
69990;DHT22;57331;52.054;5.294;2022-07-29T17:19:32;32.10;4.80
69990;DHT22;57331;52.054;5.294;2022-07-29T17:21:59;33.10;10.40
69990;DHT22;57331;52.054;5.294;2022-07-29T17:24:37;31.90;4.50
69990;DHT22;57331;52.054;5.294;2022-07-29T17:27:07;32.00;4.40
69990;DHT22;57331;52.054;5.294;2022-07-29T17:29:34;31.90;4.30
69990;DHT22;57331;52.054;5.294;2022-07-29T17:32:01;31.90;5.00
69990;DHT22;57331;52.054;5.294;2022-07-29T17:34:28;31.60;4.70
69990;DHT22;57331;52.054;5.294;2022-07-29T17:36:55;31.80;4.70
69990;DHT22;57331;52.054;5.294;2022-07-29T17:39:22;30.70;10.30
69990;DHT22;57331;52.054;5.294;2022-07-29T17:41:49;31.30;5.10
69990;DHT22;57331;52.054;5.294;2022-07-29T17:44:16;31.30;5.40
69990;DHT22;57331;52.054;5.294;2022-07-29T17:46:43;31.20;5.30
69990;DHT22;57331;52.054;5.294;2022-07-29T17:49:10;30.80;5.10
69990;DHT22;57331;52.054;5.294;2022-07-29T17:51:37;30.00;11.50
69990;DHT22;57331;52.054;5.294;2022-07-29T17:54:04;30.30;11.90
69990;DHT22;57331;52.054;5.294;2022-07-29T17:56:30;29.00;11.80
69990;DHT22;57331;52.054;5.294;2022-07-29T17:58:57;30.40;12.50
69990;DHT22;57331;52.054;5.294;2022-07-29T18:01:27;31.00;14.10
69990;DHT22;57331;52.054;5.294;2022-07-29T18:03:54;28.90;13.00
69990;DHT22;57331;52.054;5.294;2022-07-29T18:06:25;30.60;13.80
69990;DHT22;57331;52.054;5.294;2022-07-29T18:08:52;29.90;8.00
69990;DHT22;57331;52.054;5.294;2022-07-29T18:11:20;29.90;7.20
69990;DHT22;57331;52.054;5.294;2022-07-29T18:13:47;30.60;14.30
69990;DHT22;57331;52.054;5.294;2022-07-29T18:16:14;29.70;7.60
69990;DHT22;57331;52.054;5.294;2022-07-29T18:18:43;29.50;7.80
69990;DHT22;57331;52.054;5.294;2022-07-29T18:21:10;29.40;8.00
69990;DHT22;57331;52.054;5.294;2022-07-29T18:23:37;28.00;13.30
69990;DHT22;57331;52.054;5.294;2022-07-29T18:26:04;28.70;14.70
69990;DHT22;57331;52.054;5.294;2022-07-29T18:28:31;28.60;14.70
69990;DHT22;57331;52.054;5.294;2022-07-29T18:30:59;28.90;8.70
69990;DHT22;57331;52.054;5.294;2022-07-29T18:33:26;28.60;15.40
69990;DHT22;57331;52.054;5.294;2022-07-29T18:35:53;28.60;9.30
69990;DHT22;57331;52.054;5.294;2022-07-29T18:38:37;28.50;16.40
69990;DHT22;57331;52.054;5.294;2022-07-29T18:41:04;28.00;16.40
69990;DHT22;57331;52.054;5.294;2022-07-29T18:43:30;29.00;10.70
69990;DHT22;57331;52.054;5.294;2022-07-29T18:45:57;27.40;16.30
69990;DHT22;57331;52.054;5.294;2022-07-29T18:48:24;28.10;18.30
69990;DHT22;57331;52.054;5.294;2022-07-29T18:50:51;28.30;17.90
69990;DHT22;57331;52.054;5.294;2022-07-29T18:53:18;25.80;16.80
69990;DHT22;57331;52.054;5.294;2022-07-29T18:55:44;26.60;17.80
69990;DHT22;57331;52.054;5.294;2022-07-29T18:58:11;27.00;19.30
69990;DHT22;57331;52.054;5.294;2022-07-29T19:00:38;25.40;17.70
69990;DHT22;57331;52.054;5.294;2022-07-29T19:03:07;25.70;18.30
69990;DHT22;57331;52.054;5.294;2022-07-29T19:05:34;25.50;18.50
69990;DHT22;57331;52.054;5.294;2022-07-29T19:08:01;24.80;18.70
69990;DHT22;57331;52.054;5.294;2022-07-29T19:10:28;24.80;18.90